Time;durP1;ratioP1;P1;durP2;ratioP2;P2;SDS_P1;SDS_P2;PMS_P1;PMS_P2;Temp;Humidity;BMP_temperature;BMP_pressure;BME280_temperature;BME280_humidity;BME280_pressure;Samples;Min_cycle;Max_cycle;Signal;HPM_P1;HPM_P2
2022/10/06 00:01:08;;;;;;;6.17;5.57;;;;;;;11.56;72.53;101081.29;1618474;87;21151;-74
2022/10/06 00:03:53;;;;;;;7.60;6.30;;;;;;;11.56;72.61;101082.58;1646764;85;21127;-74
2022/10/06 00:06:38;;;;;;;10.08;5.72;;;;;;;11.57;72.63;101081.70;1654018;85;21142;-73
2022/10/06 00:09:23;;;;;;;7.05;6.00;;;;;;;11.57;72.68;101083.86;1642345;85;21123;-74
2022/10/06 00:12:09;;;;;;;10.93;6.25;;;;;;;11.57;72.70;101079.98;1642679;85;21487;-74
2022/10/06 00:14:54;;;;;;;7.83;5.70;;;;;;;11.58;72.75;101075.66;1641594;85;21095;-74
2022/10/06 00:17:40;;;;;;;8.45;5.67;;;;;;;11.58;72.85;101084.28;1650819;85;21073;-74
2022/10/06 00:20:26;;;;;;;7.75;5.62;;;;;;;11.60;72.88;101082.53;1655584;84;21345;-74
2022/10/06 00:23:11;;;;;;;8.90;5.72;;;;;;;11.61;72.92;101085.97;1631528;85;21086;-74
2022/10/06 00:25:57;;;;;;;9.25;5.62;;;;;;;11.60;72.95;101086.41;1644728;85;21024;-74
2022/10/06 00:28:45;;;;;;;10.55;5.55;;;;;;;11.59;72.98;101083.84;1646011;85;21063;-74
2022/10/06 00:31:30;;;;;;;9.58;5.55;;;;;;;11.58;73.05;101083.42;1645618;85;21642;-74
2022/10/06 00:34:15;;;;;;;5.83;5.33;;;;;;;11.62;73.08;101086.39;1644483;85;21139;-73
2022/10/06 00:37:00;;;;;;;8.15;5.72;;;;;;;11.61;73.11;101087.27;1658121;85;21025;-73
2022/10/06 00:39:45;;;;;;;7.67;5.67;;;;;;;11.61;73.18;101084.24;1646888;85;21115;-73
2022/10/06 00:42:32;;;;;;;9.30;5.55;;;;;;;11.60;73.21;101082.97;1639144;85;21023;-73
2022/10/06 00:45:18;;;;;;;;;;;;;;;11.61;73.26;101082.95;1645473;85;21101;-73
2022/10/06 00:48:10;;;;;;;;;;;;;;;11.61;73.60;101083.39;1631604;85;20186;-73
2022/10/06 00:50:57;;;;;;;12.50;5.20;;;;;;;11.61;73.63;101080.80;1639331;85;20219;-73
2022/10/06 00:53:42;;;;;;;10.08;5.45;;;;;;;11.60;73.34;101084.27;1643668;85;21091;-73
2022/10/06 00:56:28;;;;;;;7.70;6.15;;;;;;;11.59;73.40;101080.81;1654861;85;21079;-73
2022/10/06 00:59:17;;;;;;;6.62;6.03;;;;;;;11.59;73.43;101081.25;1647683;85;21618;-73
2022/10/06 01:02:16;;;;;;;11.55;6.33;;;;;;;11.59;73.46;101087.29;1644510;85;21012;-73
2022/10/06 01:05:04;;;;;;;9.58;5.72;;;;;;;11.58;73.49;101086.87;1639706;86;21084;-73
2022/10/06 01:07:49;;;;;;;12.95;6.70;;;;;;;11.58;73.50;101092.48;1642435;86;21124;-74
2022/10/06 01:10:35;;;;;;;7.95;7.15;;;;;;;11.56;73.54;101087.77;1642077;86;21111;-74
2022/10/06 01:13:20;;;;;;;9.83;7.58;;;;;;;11.54;73.58;101090.38;1635623;86;21182;-74
2022/10/06 01:16:23;;;;;;;8.20;7.23;;;;;;;11.53;73.63;101091.25;1648973;85;21132;-74
2022/10/06 01:19:13;;;;;;;14.85;8.00;;;;;;;11.52;73.64;101099.03;1640492;86;21107;-74
2022/10/06 01:22:03;;;;;;;9.30;8.33;;;;;;;11.50;73.67;101104.67;1642662;86;21111;-74
2022/10/06 01:24:51;;;;;;;8.83;7.83;;;;;;;11.48;73.70;101104.69;1638917;84;21087;-74
2022/10/06 01:27:40;;;;;;;8.98;7.08;;;;;;;11.47;73.76;101112.48;1640740;86;21088;-74
2022/10/06 01:30:39;;;;;;;7.95;7.15;;;;;;;11.46;73.80;101111.62;1518114;86;5001669;-74
2022/10/06 01:33:24;;;;;;;10.72;7.30;;;;;;;11.45;73.83;101112.93;1635921;86;21151;-74
2022/10/06 01:36:09;;;;;;;7.55;6.85;;;;;;;11.43;73.85;101107.80;1645381;86;21000;-74
2022/10/06 01:38:54;;;;;;;11.45;7.20;;;;;;;11.43;73.90;101114.27;1652003;86;21264;-74
2022/10/06 01:44:10;;;;;;;7.85;7.15;;;;;;;11.45;73.93;101103.87;1828985;75;22627;-73
2022/10/06 01:46:55;;;;;;;11.50;7.45;;;;;;;11.42;73.97;101119.03;1804743;77;20956;-73
2022/10/06 01:49:40;;;;;;;34.18;7.83;;;;;;;11.42;74.02;101116.88;1795358;77;21056;-73
2022/10/06 01:52:25;;;;;;;10.80;7.33;;;;;;;11.41;74.05;101118.61;1775245;80;21591;-73
2022/10/06 01:55:11;;;;;;;8.23;6.75;;;;;;;11.38;74.08;101121.23;1775551;78;21010;-73
2022/10/06 01:57:56;;;;;;;7.03;6.33;;;;;;;11.38;74.15;101126.85;1794587;77;20964;-73
2022/10/06 02:00:42;;;;;;;17.90;8.38;;;;;;;11.38;74.17;101122.53;1771837;80;20976;-74
2022/10/06 02:03:27;;;;;;;7.70;6.95;;;;;;;11.39;74.19;101120.80;1763290;80;21047;-73
2022/10/06 02:06:12;;;;;;;9.75;6.80;;;;;;;11.37;74.25;101116.08;1781820;78;21619;-73
2022/10/06 02:08:59;;;;;;;10.25;7.15;;;;;;;11.38;74.28;101125.56;1783636;80;20993;-74
2022/10/06 02:11:44;;;;;;;7.70;7.00;;;;;;;11.36;74.33;101121.69;1779615;80;21575;-74
2022/10/06 02:14:31;;;;;;;8.20;7.00;;;;;;;11.36;74.40;101128.16;1769266;78;21488;-74
2022/10/06 02:17:16;;;;;;;7.42;6.70;;;;;;;11.36;74.45;101128.16;1767962;80;21115;-74
2022/10/06 02:20:01;;;;;;;7.35;6.60;;;;;;;11.37;74.47;101126.44;1767311;80;21599;-74
2022/10/06 02:22:46;;;;;;;14.80;6.92;;;;;;;11.37;74.52;101132.47;1769141;80;21500;-74
2022/10/06 02:25:32;;;;;;;6.12;5.53;;;;;;;11.39;74.58;101136.34;1822801;77;21021;-74
2022/10/06 02:28:17;;;;;;;11.95;5.58;;;;;;;11.39;74.67;101137.20;1829113;77;21042;-74
2022/10/06 02:31:07;;;;;;;7.92;5.53;;;;;;;11.41;74.71;101144.95;1826176;76;21038;-74
2022/10/06 02:33:52;;;;;;;5.70;5.20;;;;;;;11.44;74.78;101139.27;1820234;77;21017;-74
2022/10/06 02:36:37;;;;;;;8.58;5.35;;;;;;;11.47;74.82;101143.55;1822032;77;20965;-74
2022/10/06 02:39:22;;;;;;;7.78;5.28;;;;;;;11.51;74.88;101142.64;1826995;77;21065;-74
2022/10/06 02:42:08;;;;;;;7.10;5.42;;;;;;;11.55;74.96;101143.03;1816886;77;21203;-74
2022/10/06 02:44:52;;;;;;;6.37;4.97;;;;;;;11.60;75.02;101146.42;1822480;76;21058;-74
2022/10/06 02:47:38;;;;;;;5.75;5.25;;;;;;;11.67;75.11;101153.25;1818787;77;21490;-74
2022/10/06 02:50:23;;;;;;;6.42;4.62;;;;;;;11.72;75.12;101153.20;1820936;77;21485;-74
2022/10/06 02:53:08;;;;;;;4.67;4.17;;;;;;;11.76;75.16;101153.58;1828054;76;21629;-74
2022/10/06 02:56:02;;;;;;;5.80;4.87;;;;;;;11.80;75.18;101157.88;1829357;77;21097;-74
2022/10/06 02:58:49;;;;;;;5.40;4.90;;;;;;;11.84;75.24;101166.03;1824638;77;21027;-74
2022/10/06 03:01:34;;;;;;;5.47;4.50;;;;;;;11.87;75.31;101159.08;1818903;77;21033;-74
2022/10/06 03:04:20;;;;;;;6.90;5.40;;;;;;;11.92;75.36;101171.98;1835896;77;21122;-74
2022/10/06 03:07:05;;;;;;;5.40;4.67;;;;;;;11.96;75.42;101167.62;1813520;76;20996;-74
2022/10/06 03:09:50;;;;;;;5.42;4.78;;;;;;;11.99;75.48;101175.33;1815109;77;21526;-74
2022/10/06 03:12:35;;;;;;;6.95;4.33;;;;;;;12.03;75.50;101179.59;1819172;77;21030;-74
2022/10/06 03:15:20;;;;;;;5.47;4.53;;;;;;;12.07;75.58;101178.67;1818126;77;21092;-74
2022/10/06 03:18:06;;;;;;;7.87;4.12;;;;;;;12.11;75.65;101178.61;1833417;77;21118;-74
2022/10/06 03:20:52;;;;;;;5.35;4.85;;;;;;;12.18;75.71;101184.14;1826781;77;21041;-74
2022/10/06 03:23:37;;;;;;;;;;;;;;;12.28;75.92;101184.02;1784172;78;21516;-74
2022/10/06 03:26:27;;;;;;;4.97;4.15;;;;;;;12.37;76.37;101189.94;1807705;78;20182;-74
2022/10/06 03:29:13;;;;;;;5.72;4.25;;;;;;;12.45;75.89;101189.83;1786500;79;21119;-74
2022/10/06 03:31:58;;;;;;;6.45;4.50;;;;;;;12.54;75.96;101193.11;1779536;78;21111;-74
2022/10/06 03:34:45;;;;;;;5.60;4.70;;;;;;;12.64;75.98;101192.53;1789076;78;21410;-74
2022/10/06 03:37:29;;;;;;;;;;;;;;;12.70;76.00;101184.66;1768683;79;21099;-74
2022/10/06 03:40:15;;;;;;;5.70;4.03;;;;;;;12.76;76.38;101196.68;1777170;79;20178;-74
2022/10/06 03:43:00;;;;;;;5.20;4.17;;;;;;;12.81;76.05;101202.22;1784171;80;21045;-74
2022/10/06 03:45:55;;;;;;;8.43;4.25;;;;;;;12.87;76.12;101198.67;1785573;79;21606;-74
2022/10/06 03:48:41;;;;;;;4.50;4.10;;;;;;;12.94;76.15;101201.58;1786216;78;21085;-74
2022/10/06 03:51:40;;;;;;;4.67;4.28;;;;;;;12.98;76.15;101207.58;1772844;78;21465;-74
2022/10/06 03:54:25;;;;;;;6.10;4.45;;;;;;;13.03;76.22;101212.23;1784353;78;21084;-74
2022/10/06 03:57:10;;;;;;;7.05;4.30;;;;;;;13.08;76.33;101215.60;1782700;79;21037;-73
2022/10/06 03:59:58;;;;;;;7.42;4.53;;;;;;;13.13;76.33;101221.14;1774504;79;21527;-73
2022/10/06 04:02:42;;;;;;;;;;;;;;;13.18;76.34;101223.25;1780079;79;21023;-73
2022/10/06 04:05:27;;;;;;;6.73;4.10;;;;;;;13.22;76.66;101224.91;1780485;79;20343;-74
2022/10/06 04:08:13;;;;;;;6.30;4.25;;;;;;;13.27;76.46;101222.68;1802728;77;21091;-74
2022/10/06 04:11:15;;;;;;;5.53;4.60;;;;;;;13.31;76.47;101229.09;1791152;79;21338;-74
2022/10/06 04:14:05;;;;;;;6.53;3.65;;;;;;;13.35;76.49;101223.41;1783276;79;21091;-74
2022/10/06 04:16:50;;;;;;;6.58;4.28;;;;;;;13.38;76.53;101224.20;1783818;78;21008;-74
2022/10/06 04:19:35;;;;;;;8.58;3.55;;;;;;;13.41;76.51;101225.89;1779065;79;21056;-73
2022/10/06 04:22:21;;;;;;;5.78;3.90;;;;;;;13.44;76.59;101231.89;1778829;78;21563;-76
2022/10/06 04:25:07;;;;;;;4.30;3.92;;;;;;;13.47;76.59;101231.84;1779464;78;21456;-76
2022/10/06 04:27:52;;;;;;;;;;;;;;;13.48;76.61;101241.34;1786621;79;21504;-76
2022/10/06 04:30:37;;;;;;;4.65;3.87;;;;;;;13.49;76.86;101244.80;1786678;78;20200;-76
2022/10/06 04:33:22;;;;;;;4.83;4.33;;;;;;;13.47;76.63;101245.27;1795503;78;21044;-76
2022/10/06 04:36:08;;;;;;;4.75;3.92;;;;;;;13.46;76.70;101250.05;1795032;78;21535;-76
2022/10/06 04:38:57;;;;;;;4.70;3.92;;;;;;;13.46;76.72;101252.65;1774367;79;20964;-76
2022/10/06 04:41:46;;;;;;;6.47;3.67;;;;;;;13.47;76.77;101255.66;1790265;79;21096;-76
2022/10/06 04:44:29;;;;;;;6.10;3.85;;;;;;;13.46;76.79;101258.70;1779719;79;21012;-76
2022/10/06 04:47:14;;;;;;;5.78;3.83;;;;;;;13.45;76.83;101256.12;1774908;79;21118;-76
2022/10/06 04:49:59;;;;;;;4.67;4.17;;;;;;;13.42;76.81;101259.64;1781100;78;20968;-76
2022/10/06 04:52:44;;;;;;;4.25;3.85;;;;;;;13.41;76.84;101259.66;1790805;78;21088;-76
2022/10/06 04:55:29;;;;;;;6.75;4.37;;;;;;;13.39;76.85;101267.92;1793645;78;21034;-76
2022/10/06 04:58:14;;;;;;;5.25;4.12;;;;;;;13.39;76.92;101260.98;1775559;79;21079;-76
2022/10/06 05:01:00;;;;;;;4.20;3.80;;;;;;;13.38;76.92;101268.37;1788550;78;21080;-77
2022/10/06 05:03:48;;;;;;;3.70;3.37;;;;;;;13.38;76.97;101267.07;1794043;78;21308;-76
2022/10/06 05:06:41;;;;;;;4.60;3.92;;;;;;;13.37;76.97;101276.19;1796894;79;21620;-76
2022/10/06 05:09:26;;;;;;;5.55;4.12;;;;;;;13.37;77.03;101277.48;1797702;79;21477;-76
2022/10/06 05:12:11;;;;;;;4.72;3.72;;;;;;;13.36;77.04;101280.97;1774666;79;21037;-76
2022/10/06 05:14:57;;;;;;;5.37;4.17;;;;;;;13.35;77.03;101287.90;1773701;80;21045;-76
2022/10/06 05:17:42;;;;;;;4.67;4.00;;;;;;;13.34;77.07;101293.12;1771108;80;21302;-76
2022/10/06 05:20:28;;;;;;;5.53;4.00;;;;;;;13.33;77.14;101286.21;1784780;79;21339;-76
2022/10/06 05:23:13;;;;;;;6.95;4.03;;;;;;;13.32;77.09;101291.84;1799194;77;21000;-76
2022/10/06 05:26:00;;;;;;;5.33;4.42;;;;;;;13.31;77.16;101291.43;1783685;77;21040;-76
2022/10/06 05:28:45;;;;;;;4.92;4.17;;;;;;;13.30;77.16;101301.84;1785688;78;21004;-76
2022/10/06 05:31:37;;;;;;;4.92;4.12;;;;;;;13.30;77.25;101304.44;1792354;79;21000;-76
2022/10/06 05:34:20;;;;;;;6.60;4.10;;;;;;;13.30;77.26;101309.20;1786679;79;21052;-76
2022/10/06 05:37:06;;;;;;;4.78;4.33;;;;;;;13.32;77.28;101318.27;1795231;79;20944;-76
2022/10/06 05:39:51;;;;;;;4.33;3.92;;;;;;;13.33;77.28;101327.33;1781482;79;21012;-75
2022/10/06 05:42:36;;;;;;;5.75;3.98;;;;;;;13.38;77.37;101326.81;1800490;79;21044;-74
2022/10/06 05:45:21;;;;;;;5.60;4.30;;;;;;;13.47;77.41;101325.81;1787266;79;20999;-74
2022/10/06 05:48:08;;;;;;;3.90;3.45;;;;;;;13.69;77.60;101338.83;1787697;77;21110;-75
2022/10/06 05:51:03;;;;;;;5.22;4.08;;;;;;;14.11;77.71;101335.88;1787280;79;21011;-74
2022/10/06 05:53:49;;;;;;;3.90;3.42;;;;;;;14.65;77.67;101342.17;1789772;79;21075;-74
2022/10/06 05:56:37;;;;;;;3.40;3.10;;;;;;;15.19;77.64;101332.69;1772306;79;21643;-74
2022/10/06 05:59:21;;;;;;;5.67;3.00;;;;;;;15.61;77.60;101336.02;1791484;79;20929;-74
2022/10/06 06:02:08;;;;;;;3.08;2.75;;;;;;;15.96;77.49;101345.98;1788179;79;20949;-74
2022/10/06 06:04:54;;;;;;;3.47;3.08;;;;;;;16.03;77.29;101354.06;1779943;79;21061;-74
2022/10/06 06:07:39;;;;;;;7.57;3.67;;;;;;;15.91;77.17;101346.55;1776065;79;21024;-74
2022/10/06 06:10:25;;;;;;;3.92;3.60;;;;;;;15.74;77.23;101355.67;1782121;78;21608;-74
2022/10/06 06:13:10;;;;;;;3.30;3.00;;;;;;;15.61;77.28;101372.51;1713578;79;437903;-74
2022/10/06 06:15:59;;;;;;;6.25;3.40;;;;;;;15.51;77.25;101374.93;1714408;83;21074;-74
2022/10/06 06:18:44;;;;;;;3.47;3.00;;;;;;;15.42;77.31;101385.13;1664073;85;21074;-74
2022/10/06 06:21:29;;;;;;;4.92;3.12;;;;;;;15.33;77.31;101391.00;1707838;83;21099;-74
2022/10/06 06:24:14;;;;;;;4.87;3.22;;;;;;;15.26;77.34;101393.33;1697987;84;21081;-74
2022/10/06 06:26:59;;;;;;;3.30;3.00;;;;;;;15.18;77.31;101408.69;1713553;83;21607;-74
2022/10/06 06:29:45;;;;;;;4.97;3.52;;;;;;;15.13;77.31;101411.84;1688902;84;21551;-74
2022/10/06 06:32:30;;;;;;;3.45;3.15;;;;;;;15.10;77.35;101412.35;1698596;84;21094;-74
2022/10/06 06:35:15;;;;;;;3.90;3.47;;;;;;;15.07;77.38;101414.61;1712921;83;21669;-74
2022/10/06 06:38:00;;;;;;;7.30;3.22;;;;;;;15.05;77.35;101418.14;1696830;84;21546;-74
2022/10/06 06:40:46;;;;;;;3.83;3.00;;;;;;;15.04;77.33;101425.55;1716114;83;21126;-74
2022/10/06 06:43:31;;;;;;;3.27;3.02;;;;;;;15.03;77.34;101429.89;1689019;83;21065;-74
2022/10/06 06:46:18;;;;;;;3.50;2.70;;;;;;;15.01;77.32;101436.88;1709697;83;21336;-74
2022/10/06 06:49:05;;;;;;;3.47;2.60;;;;;;;15.01;77.34;101446.00;1684461;84;21073;-74
2022/10/06 06:51:49;;;;;;;;;;;;;;;15.02;77.32;101448.16;1712855;83;21074;-74
2022/10/06 06:54:34;;;;;;;2.60;2.40;;;;;;;15.01;77.36;101453.81;1675201;84;20212;-74
2022/10/06 06:57:19;;;;;;;3.72;2.77;;;;;;;15.00;77.31;101452.09;1686859;82;22157;-74
2022/10/06 07:00:07;;;;;;;4.72;3.08;;;;;;;15.01;77.31;101452.95;1698275;82;21364;-74
2022/10/06 07:02:55;;;;;;;5.33;3.08;;;;;;;15.02;77.29;101459.44;1719036;81;21158;-74
2022/10/06 07:05:39;;;;;;;3.70;3.27;;;;;;;15.01;77.31;101469.44;1697329;82;21137;-74
2022/10/06 07:08:24;;;;;;;4.35;2.98;;;;;;;15.02;77.30;101472.91;1709215;82;21079;-74
2022/10/06 07:11:22;;;;;;;5.53;2.90;;;;;;;15.04;77.33;101483.70;1690937;82;21172;-74
2022/10/06 07:14:11;;;;;;;6.70;2.92;;;;;;;15.08;77.37;101485.77;1687824;82;21085;-74
2022/10/06 07:26:07;;;;;;;9.33;2.98;;;;;;;15.21;77.40;101497.20;1707983;82;21019;-74
2022/10/06 07:28:52;;;;;;;3.17;2.80;;;;;;;15.26;77.36;101496.25;1687005;84;21133;-74
2022/10/06 07:31:37;;;;;;;4.50;2.67;;;;;;;15.30;77.37;101516.14;1716106;81;21103;-74
2022/10/06 07:34:22;;;;;;;3.00;2.47;;;;;;;15.34;77.38;101513.89;1658683;84;21088;-74
2022/10/06 07:37:07;;;;;;;4.55;2.47;;;;;;;15.40;77.35;101525.48;1717308;82;21091;-74
2022/10/06 07:39:52;;;;;;;3.40;2.42;;;;;;;15.45;77.32;101517.12;1687603;84;21417;-74
2022/10/06 07:42:50;;;;;;;6.12;1.85;;;;;;;15.48;77.33;101525.73;1708957;82;21663;-74
2022/10/06 07:45:43;;;;;;;2.25;1.90;;;;;;;15.54;77.26;101540.39;1680781;84;21513;-74
2022/10/06 07:48:28;;;;;;;2.22;1.85;;;;;;;15.56;77.22;101530.78;1686650;83;21648;-73
2022/10/06 07:51:17;;;;;;;2.83;1.77;;;;;;;15.62;77.21;101541.53;1677111;83;21062;-77
2022/10/06 07:54:03;;;;;;;2.45;1.60;;;;;;;15.68;77.18;101556.59;1687255;82;20999;-75
2022/10/06 07:56:52;;;;;;;2.90;1.75;;;;;;;15.72;77.15;101560.84;1676498;83;21914;-83
2022/10/06 07:59:40;;;;;;;1.77;1.40;;;;;;;15.77;77.08;101571.18;1674620;83;21532;-82
2022/10/06 08:02:25;;;;;;;1.40;1.30;;;;;;;15.81;77.05;101572.83;1695283;82;21095;-82
2022/10/06 08:05:10;;;;;;;5.42;1.87;;;;;;;15.85;76.87;101585.77;1679745;84;21074;-82
2022/10/06 08:07:55;;;;;;;5.05;1.37;;;;;;;15.94;76.94;101587.76;1694274;82;21535;-76
2022/10/06 08:10:42;;;;;;;2.27;1.35;;;;;;;16.02;76.89;101586.69;1680770;83;21180;-74
2022/10/06 08:13:27;;;;;;;;;;;;;;;16.18;76.98;101587.16;1680248;84;21138;-76
2022/10/06 08:16:15;;;;;;;2.10;1.35;;;;;;;16.59;76.92;101610.11;1661503;84;20210;-74
2022/10/06 08:19:00;;;;;;;3.33;0.82;;;;;;;16.91;76.93;101604.92;1663592;84;21080;-75
2022/10/06 08:21:46;;;;;;;1.70;1.05;;;;;;;17.13;76.89;101612.61;1677629;83;21106;-75
2022/10/06 08:24:31;;;;;;;1.90;1.35;;;;;;;17.28;76.80;101621.75;1693652;83;21108;-74
2022/10/06 08:27:16;;;;;;;5.08;1.00;;;;;;;17.29;76.67;101622.61;1676909;83;21082;-75
2022/10/06 08:30:04;;;;;;;2.30;1.22;;;;;;;17.34;76.66;101636.41;1695093;83;21710;-75
2022/10/06 08:32:49;;;;;;;1.57;1.00;;;;;;;17.38;76.62;101639.35;1676698;83;21090;-75
2022/10/06 08:35:34;;;;;;;2.10;0.98;;;;;;;17.34;76.54;101649.48;1687160;82;21036;-76
2022/10/06 08:38:20;;;;;;;2.33;0.90;;;;;;;17.33;76.49;101655.61;1678675;83;21104;-75
2022/10/06 08:41:29;;;;;;;3.30;0.93;;;;;;;17.30;76.37;101660.92;1682373;84;22161;-75
2022/10/06 08:44:21;;;;;;;2.22;1.00;;;;;;;17.26;76.29;101667.99;1678223;83;21117;-75
2022/10/06 08:47:19;;;;;;;3.27;0.80;;;;;;;17.24;76.26;101664.56;1709853;82;21704;-75
2022/10/06 08:50:09;;;;;;;1.47;0.78;;;;;;;17.28;76.17;101683.19;1693859;83;21113;-75
2022/10/06 08:53:20;;;;;;;1.95;0.80;;;;;;;17.31;76.04;101681.80;1709943;82;20916;-75
2022/10/06 08:56:22;;;;;;;2.33;0.80;;;;;;;17.36;75.92;101686.91;1694066;82;20958;-75
2022/10/06 08:59:08;;;;;;;1.20;0.70;;;;;;;17.40;75.80;101689.39;1714309;82;20967;-75
2022/10/06 09:01:53;;;;;;;2.10;1.10;;;;;;;17.39;75.74;101688.98;1687921;82;20934;-75
2022/10/06 09:04:38;;;;;;;1.20;0.75;;;;;;;17.38;75.64;101691.64;1702667;82;21433;-75
2022/10/06 09:07:37;;;;;;;0.75;0.60;;;;;;;17.34;75.46;101697.41;1713128;81;20948;-76
2022/10/06 09:10:39;;;;;;;1.80;0.80;;;;;;;17.31;75.49;101705.78;1721224;82;20924;-75
2022/10/06 09:13:52;;;;;;;3.25;0.90;;;;;;;17.34;75.35;101710.48;1722217;82;20964;-75
2022/10/06 09:16:38;;;;;;;1.80;0.68;;;;;;;17.37;75.18;101704.30;1633888;83;21465;-75
2022/10/06 09:19:42;;;;;;;0.80;0.57;;;;;;;17.34;74.95;101712.23;1684812;84;20974;-75
2022/10/06 09:22:31;;;;;;;0.75;0.70;;;;;;;17.25;74.72;101723.78;1717329;82;21318;-75
2022/10/06 09:25:24;;;;;;;1.30;0.50;;;;;;;17.12;74.59;101710.20;1693199;82;20966;-75
2022/10/06 09:28:14;;;;;;;2.10;0.62;;;;;;;16.99;74.23;101723.16;1719995;81;21028;-75
2022/10/06 09:31:02;;;;;;;1.85;0.60;;;;;;;16.86;74.26;101720.44;1696935;82;21514;-75
2022/10/06 09:33:50;;;;;;;2.55;0.45;;;;;;;16.78;74.18;101727.16;1601519;80;5001833;-75
2022/10/06 09:37:07;;;;;;;1.40;0.40;;;;;;;16.71;73.96;101737.78;1730226;80;20923;-75
2022/10/06 09:39:53;;;;;;;1.37;0.50;;;;;;;16.66;73.76;101739.64;1723167;81;20947;-75
2022/10/06 09:42:43;;;;;;;3.00;2.40;;;;;;;16.60;73.66;101748.48;1722971;80;20912;-75
2022/10/06 09:45:28;;;;;;;3.33;0.60;;;;;;;16.56;73.51;101753.36;1734031;80;21024;-75
2022/10/06 09:48:22;;;;;;;1.07;0.60;;;;;;;16.51;73.31;101759.13;1697416;82;20971;-75
2022/10/06 09:51:16;;;;;;;2.08;0.68;;;;;;;16.47;73.13;101766.61;1706831;82;21277;-75
2022/10/06 09:54:13;;;;;;;3.90;0.50;;;;;;;16.48;72.78;101755.28;1703562;82;20939;-75
2022/10/06 09:57:02;;;;;;;0.57;0.37;;;;;;;16.51;72.75;101770.42;1696856;82;20931;-75
2022/10/06 09:59:47;;;;;;;1.12;0.40;;;;;;;16.58;72.55;101776.82;1689342;82;20931;-75
2022/10/06 10:02:39;;;;;;;1.67;0.60;;;;;;;16.60;72.36;101760.67;1711140;82;20894;-76
2022/10/06 10:05:27;;;;;;;0.70;0.47;;;;;;;16.64;72.34;101782.77;1708002;82;21429;-75
2022/10/06 10:08:26;;;;;;;1.62;0.30;;;;;;;16.71;72.18;101786.10;1708137;82;20936;-75
2022/10/06 10:14:24;;;;;;;5.40;0.37;;;;;;;16.82;71.78;101782.80;1707205;82;20947;-75
2022/10/06 10:17:32;;;;;;;0.80;0.30;;;;;;;16.87;71.60;101797.92;1703895;82;20943;-75
2022/10/06 10:20:32;;;;;;;1.35;0.45;;;;;;;16.90;71.44;101805.69;1695255;82;21535;-75
2022/10/06 10:23:41;;;;;;;0.60;0.30;;;;;;;16.98;71.18;101812.05;1699055;82;20904;-75
2022/10/06 10:26:46;;;;;;;0.55;0.30;;;;;;;17.04;71.09;101810.59;1696159;82;21412;-75
2022/10/06 10:30:01;;;;;;;3.90;1.15;;;;;;;17.07;70.94;101819.22;1703976;82;20908;-75
2022/10/06 10:32:57;;;;;;;1.10;0.40;;;;;;;17.13;70.82;101825.61;1705344;82;20951;-75
2022/10/06 10:35:46;;;;;;;1.45;0.30;;;;;;;17.18;70.66;101832.01;1697338;82;20940;-75
2022/10/06 10:38:31;;;;;;;1.52;0.40;;;;;;;17.18;70.34;101841.16;1699182;82;21444;-75
2022/10/06 10:41:21;;;;;;;1.75;0.47;;;;;;;17.15;70.29;101834.28;1695309;82;20983;-75
2022/10/06 10:44:20;;;;;;;1.47;0.53;;;;;;;17.15;70.12;101836.89;1702866;82;21404;-75
2022/10/06 10:47:22;;;;;;;1.80;0.30;;;;;;;17.14;69.99;101841.70;1700377;82;21464;-75
2022/10/06 10:50:24;;;;;;;3.45;0.50;;;;;;;17.18;69.91;101838.09;1703915;82;21396;-75
2022/10/06 10:53:29;;;;;;;0.80;0.50;;;;;;;17.31;69.69;101849.12;1700759;83;20943;-75
2022/10/06 10:56:16;;;;;;;1.17;0.50;;;;;;;17.39;69.43;101854.16;1703148;82;20982;-74
2022/10/06 10:59:20;;;;;;;4.05;0.40;;;;;;;17.43;68.91;101847.52;1705954;82;21523;-74
2022/10/06 11:02:18;;;;;;;1.37;0.55;;;;;;;17.42;68.92;101848.41;1701671;82;21043;-74
2022/10/06 11:05:45;;;;;;;2.37;0.40;;;;;;;17.45;68.79;101847.48;1702663;82;21137;-74
2022/10/06 11:08:44;;;;;;;1.87;0.40;;;;;;;17.51;68.68;101851.25;1710372;82;20950;-74
2022/10/06 11:11:53;;;;;;;2.72;0.65;;;;;;;17.57;68.50;101859.39;1707487;82;21098;-74
2022/10/06 11:14:58;;;;;;;1.55;0.45;;;;;;;17.57;68.29;101864.17;1703047;82;21039;-74
2022/10/06 11:17:49;;;;;;;2.20;0.65;;;;;;;17.56;68.18;101863.77;1705205;82;21063;-74
2022/10/06 11:20:59;;;;;;;4.28;0.70;;;;;;;17.58;68.05;101872.44;1692289;82;21090;-74
2022/10/06 11:24:14;;;;;;;3.33;0.50;;;;;;;17.60;67.79;101869.33;1702067;82;21059;-74
2022/10/06 11:27:10;;;;;;;2.08;0.53;;;;;;;17.66;67.61;101873.13;1699913;82;21597;-74
2022/10/06 11:30:18;;;;;;;0.60;0.20;;;;;;;17.74;67.53;101874.22;1718794;82;25252;-74
2022/10/06 11:33:20;;;;;;;2.92;0.70;;;;;;;17.79;67.31;101882.80;1697001;83;20915;-74
2022/10/06 11:36:10;;;;;;;3.35;0.82;;;;;;;17.77;67.19;101881.98;1700421;82;22316;-74
2022/10/06 11:39:00;;;;;;;6.15;0.62;;;;;;;17.70;66.99;101878.66;1699238;82;21080;-74
2022/10/06 11:41:54;;;;;;;2.30;0.70;;;;;;;17.65;66.79;101891.03;1702938;82;21059;-74
2022/10/06 11:44:46;;;;;;;1.50;0.65;;;;;;;17.57;66.63;101885.55;1699037;82;21042;-74
2022/10/06 11:48:05;;;;;;;1.98;0.50;;;;;;;17.55;66.70;101885.58;1703760;81;21047;-74
2022/10/06 11:50:54;;;;;;;1.25;0.60;;;;;;;17.56;66.44;101883.83;1705711;82;21070;-74
2022/10/06 11:53:39;;;;;;;3.15;0.82;;;;;;;17.54;66.28;101895.19;1697131;82;21047;-74
2022/10/06 11:56:38;;;;;;;1.65;0.40;;;;;;;17.55;65.93;101893.43;1694061;82;21090;-74
2022/10/06 11:59:27;;;;;;;2.20;0.50;;;;;;;17.51;65.86;101896.57;1695716;82;21073;-74
2022/10/06 12:02:35;;;;;;;1.20;0.45;;;;;;;17.46;65.55;101898.44;1685213;83;20913;-74
2022/10/06 12:05:30;;;;;;;1.05;0.42;;;;;;;17.40;65.58;101899.89;1665401;83;346989;-74
2022/10/06 12:08:15;;;;;;;2.27;0.40;;;;;;;17.39;65.51;101899.92;1631247;85;20952;-74
2022/10/06 12:11:00;;;;;;;3.40;0.70;;;;;;;17.36;65.41;101907.39;1633374;85;20938;-74
2022/10/06 12:13:49;;;;;;;0.45;0.33;;;;;;;17.40;65.23;101912.10;1636200;85;20932;-74
2022/10/06 12:16:40;;;;;;;1.40;0.45;;;;;;;17.42;64.99;101905.08;1640115;84;20949;-74
2022/10/06 12:19:42;;;;;;;1.27;0.40;;;;;;;17.43;64.78;101916.81;1644425;85;21367;-74
2022/10/06 12:22:35;;;;;;;6.80;0.57;;;;;;;17.47;64.68;101921.52;1642344;85;21008;-74
2022/10/06 12:25:48;;;;;;;7.22;0.62;;;;;;;17.54;64.23;101917.42;1642282;85;21128;-74
2022/10/06 12:28:43;;;;;;;2.62;0.60;;;;;;;17.54;64.31;101923.95;1630209;85;21687;-74
2022/10/06 12:31:48;;;;;;;0.93;0.40;;;;;;;17.58;64.00;101935.66;1606740;86;21072;-74
2022/10/06 12:34:53;;;;;;;1.22;0.33;;;;;;;17.58;63.90;101936.96;1630121;84;21104;-74
2022/10/06 12:37:48;;;;;;;3.58;0.50;;;;;;;17.49;63.72;101941.96;1635400;85;21083;-74
2022/10/06 12:40:50;;;;;;;3.50;0.45;;;;;;;17.43;63.52;101949.50;1640094;85;21092;-74
2022/10/06 12:43:54;;;;;;;1.37;0.40;;;;;;;17.40;63.35;101939.55;1636820;85;21572;-74
2022/10/06 12:46:42;;;;;;;2.65;0.55;;;;;;;17.35;63.30;101944.89;1642852;84;21069;-74
2022/10/06 12:49:48;;;;;;;2.47;0.35;;;;;;;17.32;63.12;101942.80;1636280;85;21125;-74
2022/10/06 12:52:57;;;;;;;4.33;0.53;;;;;;;17.32;62.91;101954.11;1660166;83;21103;-74
2022/10/06 12:55:52;;;;;;;2.05;0.50;;;;;;;17.33;62.85;101951.05;1536248;91;21039;-74
2022/10/06 12:58:37;;;;;;;4.67;0.50;;;;;;;17.32;62.65;101948.02;1655068;84;21092;-74
2022/10/06 13:01:24;;;;;;;1.32;0.30;;;;;;;17.31;62.50;101958.92;1627949;86;21087;-73
2022/10/06 13:04:12;;;;;;;;;;;;;;;17.26;62.41;101950.33;1664159;84;21060;-74
2022/10/06 13:06:57;;;;;;;2.05;0.50;;;;;;;17.19;61.82;101953.97;1659067;84;20248;-74
2022/10/06 13:09:43;;;;;;;0.95;0.33;;;;;;;17.14;62.20;101958.02;1666688;84;21727;-74
2022/10/06 13:12:33;;;;;;;1.85;0.37;;;;;;;17.09;62.09;101959.02;1657964;84;21434;-74
2022/10/06 13:15:35;;;;;;;1.30;0.50;;;;;;;17.05;61.91;101968.67;1632861;85;20978;-74
2022/10/06 13:18:22;;;;;;;2.47;0.30;;;;;;;17.02;61.91;101972.66;1628745;85;21405;-74
2022/10/06 13:21:14;;;;;;;2.55;0.55;;;;;;;17.01;61.79;101976.16;1652555;84;20957;-73
2022/10/06 13:23:59;;;;;;;1.27;0.40;;;;;;;17.03;61.65;101975.69;1628621;86;21091;-74
2022/10/06 13:26:45;;;;;;;6.10;0.50;;;;;;;17.02;61.60;101971.80;1630065;86;21556;-74